sensor_id;sensor_type;location;lat;lon;timestamp;pressure;altitude;pressure_sealevel;temperature;humidity
64139;BME280;50435;43.700;-79.318;2023-03-14T00:01:35;99911.19;;;1.68;39.07
64139;BME280;50435;43.700;-79.318;2023-03-14T00:04:04;99911.50;;;1.89;39.05
64139;BME280;50435;43.700;-79.318;2023-03-14T00:06:31;99911.97;;;1.63;38.99
64139;BME280;50435;43.700;-79.318;2023-03-14T00:08:59;99913.95;;;1.84;39.17
64139;BME280;50435;43.700;-79.318;2023-03-14T00:11:26;99912.80;;;1.76;39.18
64139;BME280;50435;43.700;-79.318;2023-03-14T00:13:53;99917.00;;;1.63;39.13
64139;BME280;50435;43.700;-79.318;2023-03-14T00:16:20;99916.93;;;1.85;39.31
64139;BME280;50435;43.700;-79.318;2023-03-14T00:18:48;99919.24;;;1.81;39.01
64139;BME280;50435;43.700;-79.318;2023-03-14T00:21:15;99923.03;;;1.69;39.07
64139;BME280;50435;43.700;-79.318;2023-03-14T00:23:44;99918.75;;;1.65;39.19
64139;BME280;50435;43.700;-79.318;2023-03-14T00:26:13;99921.70;;;2.19;39.22
64139;BME280;50435;43.700;-79.318;2023-03-14T00:28:41;99921.37;;;1.76;39.30
64139;BME280;50435;43.700;-79.318;2023-03-14T00:31:11;99922.17;;;1.58;39.30
64139;BME280;50435;43.700;-79.318;2023-03-14T00:33:39;99921.93;;;1.72;38.69
64139;BME280;50435;43.700;-79.318;2023-03-14T00:36:09;99921.83;;;1.45;39.05
64139;BME280;50435;43.700;-79.318;2023-03-14T00:38:37;99920.31;;;1.57;39.30
64139;BME280;50435;43.700;-79.318;2023-03-14T00:41:06;99914.20;;;1.89;39.08
64139;BME280;50435;43.700;-79.318;2023-03-14T00:43:34;99916.58;;;1.67;38.89
64139;BME280;50435;43.700;-79.318;2023-03-14T00:46:02;99917.19;;;1.89;39.07
64139;BME280;50435;43.700;-79.318;2023-03-14T00:48:30;99918.73;;;1.64;38.99
64139;BME280;50435;43.700;-79.318;2023-03-14T00:50:58;99924.05;;;1.79;39.29
64139;BME280;50435;43.700;-79.318;2023-03-14T00:53:25;99925.14;;;1.72;39.29
64139;BME280;50435;43.700;-79.318;2023-03-14T00:55:52;99930.19;;;1.97;39.19
64139;BME280;50435;43.700;-79.318;2023-03-14T00:58:20;99928.71;;;2.03;38.98
64139;BME280;50435;43.700;-79.318;2023-03-14T01:00:47;99932.43;;;1.67;38.45
64139;BME280;50435;43.700;-79.318;2023-03-14T01:03:15;99931.89;;;1.71;38.99
64139;BME280;50435;43.700;-79.318;2023-03-14T01:05:42;99936.15;;;1.68;39.00
64139;BME280;50435;43.700;-79.318;2023-03-14T01:08:10;99938.34;;;1.45;39.12
64139;BME280;50435;43.700;-79.318;2023-03-14T01:10:39;99937.15;;;1.49;39.04
64139;BME280;50435;43.700;-79.318;2023-03-14T01:13:06;99937.24;;;1.40;39.39
64139;BME280;50435;43.700;-79.318;2023-03-14T01:15:34;99935.53;;;1.60;38.93
64139;BME280;50435;43.700;-79.318;2023-03-14T01:18:02;99942.17;;;1.35;39.41
64139;BME280;50435;43.700;-79.318;2023-03-14T01:20:30;99940.38;;;1.21;39.24
64139;BME280;50435;43.700;-79.318;2023-03-14T01:22:57;99945.67;;;1.43;39.72
64139;BME280;50435;43.700;-79.318;2023-03-14T01:25:25;99940.21;;;1.52;39.17
64139;BME280;50435;43.700;-79.318;2023-03-14T01:27:52;99947.84;;;1.16;39.20
64139;BME280;50435;43.700;-79.318;2023-03-14T01:30:20;99942.04;;;1.68;39.19
64139;BME280;50435;43.700;-79.318;2023-03-14T01:32:47;99943.92;;;1.22;39.83
64139;BME280;50435;43.700;-79.318;2023-03-14T01:35:14;99947.76;;;1.13;39.20
64139;BME280;50435;43.700;-79.318;2023-03-14T01:37:41;99946.09;;;1.16;39.20
64139;BME280;50435;43.700;-79.318;2023-03-14T01:40:11;99941.58;;;1.18;39.09
64139;BME280;50435;43.700;-79.318;2023-03-14T01:42:45;99945.19;;;1.21;39.57
64139;BME280;50435;43.700;-79.318;2023-03-14T01:46:14;99947.22;;;1.53;39.59
64139;BME280;50435;43.700;-79.318;2023-03-14T01:48:49;99945.14;;;1.43;39.07
64139;BME280;50435;43.700;-79.318;2023-03-14T01:51:20;99949.81;;;1.28;39.09
64139;BME280;50435;43.700;-79.318;2023-03-14T01:53:50;99953.89;;;1.22;39.46
64139;BME280;50435;43.700;-79.318;2023-03-14T01:56:18;99950.40;;;1.37;39.42
64139;BME280;50435;43.700;-79.318;2023-03-14T01:58:48;99954.68;;;1.02;39.09
64139;BME280;50435;43.700;-79.318;2023-03-14T02:01:19;99946.64;;;1.03;38.89
64139;BME280;50435;43.700;-79.318;2023-03-14T02:03:50;99949.90;;;1.02;38.89
64139;BME280;50435;43.700;-79.318;2023-03-14T02:06:23;99946.24;;;1.28;38.91
64139;BME280;50435;43.700;-79.318;2023-03-14T02:08:51;99944.39;;;1.58;38.90
64139;BME280;50435;43.700;-79.318;2023-03-14T02:11:19;99944.15;;;1.33;39.01
64139;BME280;50435;43.700;-79.318;2023-03-14T02:13:48;99942.18;;;1.40;39.29
64139;BME280;50435;43.700;-79.318;2023-03-14T02:16:16;99944.52;;;1.20;39.03
64139;BME280;50435;43.700;-79.318;2023-03-14T02:18:44;99943.06;;;1.12;39.45
64139;BME280;50435;43.700;-79.318;2023-03-14T02:21:15;99946.57;;;1.45;38.75
64139;BME280;50435;43.700;-79.318;2023-03-14T02:23:53;99941.04;;;0.96;39.40
64139;BME280;50435;43.700;-79.318;2023-03-14T02:26:28;99940.14;;;1.29;39.16
64139;BME280;50435;43.700;-79.318;2023-03-14T02:28:58;99938.00;;;1.32;39.22
64139;BME280;50435;43.700;-79.318;2023-03-14T02:31:26;99936.40;;;1.26;39.29
64139;BME280;50435;43.700;-79.318;2023-03-14T02:33:55;99931.60;;;1.08;39.54
64139;BME280;50435;43.700;-79.318;2023-03-14T02:36:23;99932.93;;;0.86;39.43
64139;BME280;50435;43.700;-79.318;2023-03-14T02:38:55;99930.97;;;0.94;39.37
64139;BME280;50435;43.700;-79.318;2023-03-14T02:41:25;99927.41;;;1.01;39.50
64139;BME280;50435;43.700;-79.318;2023-03-14T02:43:53;99930.69;;;0.87;39.22
64139;BME280;50435;43.700;-79.318;2023-03-14T02:46:21;99927.44;;;1.21;39.21
64139;BME280;50435;43.700;-79.318;2023-03-14T02:48:52;99930.51;;;1.12;39.39
64139;BME280;50435;43.700;-79.318;2023-03-14T02:51:21;99925.16;;;0.85;39.09
64139;BME280;50435;43.700;-79.318;2023-03-14T02:53:50;99921.81;;;1.21;39.00
64139;BME280;50435;43.700;-79.318;2023-03-14T02:56:17;99926.10;;;0.73;39.14
64139;BME280;50435;43.700;-79.318;2023-03-14T02:58:45;99923.85;;;0.87;39.08
64139;BME280;50435;43.700;-79.318;2023-03-14T03:01:12;99924.75;;;1.13;39.23
64139;BME280;50435;43.700;-79.318;2023-03-14T03:03:39;99927.45;;;0.84;39.12
64139;BME280;50435;43.700;-79.318;2023-03-14T03:06:07;99927.51;;;1.08;39.12
64139;BME280;50435;43.700;-79.318;2023-03-14T03:08:34;99924.18;;;0.60;39.29
64139;BME280;50435;43.700;-79.318;2023-03-14T03:11:02;99929.30;;;1.03;39.25
64139;BME280;50435;43.700;-79.318;2023-03-14T03:13:29;99925.49;;;1.06;39.19
64139;BME280;50435;43.700;-79.318;2023-03-14T03:15:56;99922.52;;;0.72;39.22
64139;BME280;50435;43.700;-79.318;2023-03-14T03:18:24;99927.46;;;0.80;39.15
64139;BME280;50435;43.700;-79.318;2023-03-14T03:20:51;99922.94;;;0.70;39.20
64139;BME280;50435;43.700;-79.318;2023-03-14T03:23:18;99923.86;;;1.02;39.17
64139;BME280;50435;43.700;-79.318;2023-03-14T03:25:49;99924.34;;;1.13;39.42
64139;BME280;50435;43.700;-79.318;2023-03-14T03:28:17;99922.56;;;1.34;38.98
64139;BME280;50435;43.700;-79.318;2023-03-14T03:30:45;99924.61;;;1.08;39.37
64139;BME280;50435;43.700;-79.318;2023-03-14T03:33:13;99920.76;;;1.01;38.70
64139;BME280;50435;43.700;-79.318;2023-03-14T03:35:45;99921.01;;;0.87;39.08
64139;BME280;50435;43.700;-79.318;2023-03-14T03:38:13;99923.70;;;0.70;38.88
64139;BME280;50435;43.700;-79.318;2023-03-14T03:40:42;99919.55;;;0.92;39.23
64139;BME280;50435;43.700;-79.318;2023-03-14T03:43:10;99924.46;;;0.93;38.91
64139;BME280;50435;43.700;-79.318;2023-03-14T03:45:38;99919.08;;;0.80;39.28
64139;BME280;50435;43.700;-79.318;2023-03-14T03:48:05;99915.13;;;0.97;38.85
64139;BME280;50435;43.700;-79.318;2023-03-14T03:50:32;99917.34;;;0.97;39.19
64139;BME280;50435;43.700;-79.318;2023-03-14T03:53:00;99916.15;;;0.82;38.72
64139;BME280;50435;43.700;-79.318;2023-03-14T03:55:27;99913.46;;;1.03;38.88
64139;BME280;50435;43.700;-79.318;2023-03-14T03:57:55;99910.75;;;0.99;38.73
64139;BME280;50435;43.700;-79.318;2023-03-14T04:00:22;99910.16;;;0.72;38.88
64139;BME280;50435;43.700;-79.318;2023-03-14T04:02:49;99910.26;;;0.80;39.31
64139;BME280;50435;43.700;-79.318;2023-03-14T04:05:17;99908.44;;;0.62;39.39
64139;BME280;50435;43.700;-79.318;2023-03-14T04:07:44;99910.07;;;0.69;39.34
64139;BME280;50435;43.700;-79.318;2023-03-14T04:10:12;99911.89;;;1.17;39.10
64139;BME280;50435;43.700;-79.318;2023-03-14T04:12:39;99912.65;;;1.17;39.28
64139;BME280;50435;43.700;-79.318;2023-03-14T04:15:08;99914.62;;;0.78;39.28
64139;BME280;50435;43.700;-79.318;2023-03-14T04:17:35;99913.45;;;0.36;39.40
64139;BME280;50435;43.700;-79.318;2023-03-14T04:20:03;99914.05;;;0.42;39.30
64139;BME280;50435;43.700;-79.318;2023-03-14T04:22:30;99920.04;;;0.80;39.30
64139;BME280;50435;43.700;-79.318;2023-03-14T04:24:58;99919.41;;;0.85;39.45
64139;BME280;50435;43.700;-79.318;2023-03-14T04:27:25;99920.31;;;0.89;39.21
64139;BME280;50435;43.700;-79.318;2023-03-14T04:29:53;99916.47;;;0.35;39.20
64139;BME280;50435;43.700;-79.318;2023-03-14T04:32:21;99917.30;;;0.57;39.32
64139;BME280;50435;43.700;-79.318;2023-03-14T04:34:48;99913.01;;;0.57;39.21
64139;BME280;50435;43.700;-79.318;2023-03-14T04:37:16;99912.17;;;0.70;39.18
64139;BME280;50435;43.700;-79.318;2023-03-14T04:39:43;99909.94;;;0.82;38.96
64139;BME280;50435;43.700;-79.318;2023-03-14T04:42:10;99910.19;;;0.71;39.05
64139;BME280;50435;43.700;-79.318;2023-03-14T04:44:38;99903.71;;;0.67;39.53
64139;BME280;50435;43.700;-79.318;2023-03-14T04:47:05;99908.62;;;0.54;39.32
64139;BME280;50435;43.700;-79.318;2023-03-14T04:49:33;99902.70;;;0.66;39.15
64139;BME280;50435;43.700;-79.318;2023-03-14T04:52:00;99906.78;;;0.61;39.20
64139;BME280;50435;43.700;-79.318;2023-03-14T04:54:27;99901.73;;;0.80;39.10
64139;BME280;50435;43.700;-79.318;2023-03-14T04:56:55;99902.03;;;0.49;39.29
64139;BME280;50435;43.700;-79.318;2023-03-14T04:59:22;99893.98;;;0.70;39.20
64139;BME280;50435;43.700;-79.318;2023-03-14T05:01:49;99895.46;;;0.31;38.63
64139;BME280;50435;43.700;-79.318;2023-03-14T05:04:17;99898.07;;;0.65;38.70
64139;BME280;50435;43.700;-79.318;2023-03-14T05:06:44;99893.59;;;0.53;38.99
64139;BME280;50435;43.700;-79.318;2023-03-14T05:09:12;99890.57;;;0.45;39.22
64139;BME280;50435;43.700;-79.318;2023-03-14T05:11:39;99889.54;;;0.75;38.81
64139;BME280;50435;43.700;-79.318;2023-03-14T05:14:06;99890.11;;;0.87;39.23
64139;BME280;50435;43.700;-79.318;2023-03-14T05:16:34;99882.99;;;0.43;39.32
64139;BME280;50435;43.700;-79.318;2023-03-14T05:19:01;99885.93;;;0.55;39.33
64139;BME280;50435;43.700;-79.318;2023-03-14T05:21:28;99887.86;;;0.25;39.42
64139;BME280;50435;43.700;-79.318;2023-03-14T05:23:56;99885.74;;;0.41;39.29
64139;BME280;50435;43.700;-79.318;2023-03-14T05:26:23;99883.83;;;0.52;39.01
64139;BME280;50435;43.700;-79.318;2023-03-14T05:28:51;99883.85;;;0.39;39.18
64139;BME280;50435;43.700;-79.318;2023-03-14T05:31:18;99884.53;;;0.27;39.34
64139;BME280;50435;43.700;-79.318;2023-03-14T05:33:46;99881.46;;;0.18;39.29
64139;BME280;50435;43.700;-79.318;2023-03-14T05:36:14;99880.08;;;0.82;39.29
64139;BME280;50435;43.700;-79.318;2023-03-14T05:38:41;99877.78;;;0.35;39.35
64139;BME280;50435;43.700;-79.318;2023-03-14T05:41:08;99879.13;;;0.14;39.55
64139;BME280;50435;43.700;-79.318;2023-03-14T05:43:36;99878.64;;;0.22;39.29
64139;BME280;50435;43.700;-79.318;2023-03-14T05:46:03;99876.58;;;0.17;39.40
64139;BME280;50435;43.700;-79.318;2023-03-14T05:48:30;99882.13;;;0.22;39.55
64139;BME280;50435;43.700;-79.318;2023-03-14T05:50:58;99878.11;;;-0.02;39.72
64139;BME280;50435;43.700;-79.318;2023-03-14T05:53:25;99878.66;;;0.14;39.47
64139;BME280;50435;43.700;-79.318;2023-03-14T05:55:53;99880.13;;;0.45;39.24
64139;BME280;50435;43.700;-79.318;2023-03-14T05:58:21;99878.72;;;0.72;39.12
64139;BME280;50435;43.700;-79.318;2023-03-14T06:00:48;99877.91;;;0.16;39.12
64139;BME280;50435;43.700;-79.318;2023-03-14T06:03:15;99878.67;;;0.01;39.47
64139;BME280;50435;43.700;-79.318;2023-03-14T06:05:43;99873.29;;;0.11;39.47
64139;BME280;50435;43.700;-79.318;2023-03-14T06:08:10;99876.16;;;0.31;39.66
64139;BME280;50435;43.700;-79.318;2023-03-14T06:10:38;99881.86;;;0.04;39.52
64139;BME280;50435;43.700;-79.318;2023-03-14T06:13:05;99880.53;;;0.47;39.57
64139;BME280;50435;43.700;-79.318;2023-03-14T06:15:32;99884.14;;;0.03;39.73
64139;BME280;50435;43.700;-79.318;2023-03-14T06:18:00;99884.21;;;0.43;39.62
64139;BME280;50435;43.700;-79.318;2023-03-14T06:20:27;99885.50;;;0.11;39.55
64139;BME280;50435;43.700;-79.318;2023-03-14T06:22:55;99881.89;;;0.31;39.73
64139;BME280;50435;43.700;-79.318;2023-03-14T06:25:22;99886.08;;;0.42;39.61
64139;BME280;50435;43.700;-79.318;2023-03-14T06:27:49;99888.00;;;0.31;39.13
64139;BME280;50435;43.700;-79.318;2023-03-14T06:30:17;99888.00;;;-0.06;39.75
64139;BME280;50435;43.700;-79.318;2023-03-14T06:32:45;99880.31;;;0.17;39.45
64139;BME280;50435;43.700;-79.318;2023-03-14T06:35:13;99889.83;;;0.48;39.38
64139;BME280;50435;43.700;-79.318;2023-03-14T06:37:40;99880.98;;;0.04;39.69
64139;BME280;50435;43.700;-79.318;2023-03-14T06:40:09;99888.55;;;-0.06;39.89
64139;BME280;50435;43.700;-79.318;2023-03-14T06:42:38;99884.62;;;0.12;39.75
64139;BME280;50435;43.700;-79.318;2023-03-14T06:45:07;99884.48;;;-0.26;39.92
64139;BME280;50435;43.700;-79.318;2023-03-14T06:47:35;99889.79;;;0.59;39.23
64139;BME280;50435;43.700;-79.318;2023-03-14T06:50:02;99887.12;;;0.13;39.43
64139;BME280;50435;43.700;-79.318;2023-03-14T06:52:29;99893.12;;;-0.01;39.32
64139;BME280;50435;43.700;-79.318;2023-03-14T06:54:57;99884.77;;;0.12;38.77
64139;BME280;50435;43.700;-79.318;2023-03-14T06:57:24;99885.58;;;-0.24;39.04
64139;BME280;50435;43.700;-79.318;2023-03-14T06:59:52;99883.96;;;0.27;39.13
64139;BME280;50435;43.700;-79.318;2023-03-14T07:02:19;99883.56;;;-0.04;39.16
64139;BME280;50435;43.700;-79.318;2023-03-14T07:04:46;99883.99;;;-0.15;39.05
64139;BME280;50435;43.700;-79.318;2023-03-14T07:07:14;99881.55;;;0.11;38.88
64139;BME280;50435;43.700;-79.318;2023-03-14T07:09:41;99877.78;;;0.31;39.15
64139;BME280;50435;43.700;-79.318;2023-03-14T07:12:08;99877.65;;;0.22;38.99
64139;BME280;50435;43.700;-79.318;2023-03-14T07:14:36;99878.16;;;-0.16;38.80
64139;BME280;50435;43.700;-79.318;2023-03-14T07:17:03;99867.86;;;0.07;38.80
64139;BME280;50435;43.700;-79.318;2023-03-14T07:19:31;99874.56;;;0.18;38.72
64139;BME280;50435;43.700;-79.318;2023-03-14T07:21:58;99880.60;;;0.02;39.27
64139;BME280;50435;43.700;-79.318;2023-03-14T07:24:25;99874.01;;;0.08;39.24
64139;BME280;50435;43.700;-79.318;2023-03-14T07:26:53;99877.50;;;-0.28;39.02
64139;BME280;50435;43.700;-79.318;2023-03-14T07:29:20;99874.65;;;-0.43;39.61
64139;BME280;50435;43.700;-79.318;2023-03-14T07:31:48;99869.95;;;-0.37;38.77
64139;BME280;50435;43.700;-79.318;2023-03-14T07:34:16;99868.21;;;0.17;38.78
64139;BME280;50435;43.700;-79.318;2023-03-14T07:36:43;99866.81;;;-0.20;39.00
64139;BME280;50435;43.700;-79.318;2023-03-14T07:39:11;99864.68;;;-0.01;39.29
64139;BME280;50435;43.700;-79.318;2023-03-14T07:41:38;99861.06;;;-0.85;38.85
64139;BME280;50435;43.700;-79.318;2023-03-14T07:44:06;99864.56;;;-0.62;39.17
64139;BME280;50435;43.700;-79.318;2023-03-14T07:46:33;99858.86;;;-0.69;39.15
64139;BME280;50435;43.700;-79.318;2023-03-14T07:49:00;99862.24;;;-0.03;39.15
64139;BME280;50435;43.700;-79.318;2023-03-14T07:51:28;99862.04;;;-0.36;39.36
64139;BME280;50435;43.700;-79.318;2023-03-14T07:53:55;99859.77;;;-0.41;39.75
64139;BME280;50435;43.700;-79.318;2023-03-14T07:56:23;99858.40;;;-0.32;39.39
64139;BME280;50435;43.700;-79.318;2023-03-14T07:58:50;99855.80;;;-0.31;39.06
64139;BME280;50435;43.700;-79.318;2023-03-14T08:01:17;99853.14;;;0.06;39.05
64139;BME280;50435;43.700;-79.318;2023-03-14T08:03:45;99856.49;;;-0.37;39.23
64139;BME280;50435;43.700;-79.318;2023-03-14T08:06:12;99856.85;;;-0.90;39.45
64139;BME280;50435;43.700;-79.318;2023-03-14T08:08:40;99858.72;;;-0.32;39.38
64139;BME280;50435;43.700;-79.318;2023-03-14T08:11:08;99861.90;;;-0.72;39.08
64139;BME280;50435;43.700;-79.318;2023-03-14T08:13:35;99861.31;;;-0.38;39.26
64139;BME280;50435;43.700;-79.318;2023-03-14T08:16:04;99861.86;;;-0.33;39.66
64139;BME280;50435;43.700;-79.318;2023-03-14T08:18:31;99861.95;;;-0.23;39.07
64139;BME280;50435;43.700;-79.318;2023-03-14T08:20:58;99866.42;;;-0.43;39.03
64139;BME280;50435;43.700;-79.318;2023-03-14T08:23:26;99876.25;;;-0.55;38.91
64139;BME280;50435;43.700;-79.318;2023-03-14T08:25:53;99861.07;;;-0.22;38.83
64139;BME280;50435;43.700;-79.318;2023-03-14T08:28:21;99869.20;;;-0.49;39.22
64139;BME280;50435;43.700;-79.318;2023-03-14T08:30:48;99871.92;;;-0.41;38.94
64139;BME280;50435;43.700;-79.318;2023-03-14T08:33:16;99872.29;;;-0.03;38.96
64139;BME280;50435;43.700;-79.318;2023-03-14T08:35:44;99869.90;;;-0.63;39.10
64139;BME280;50435;43.700;-79.318;2023-03-14T08:38:11;99878.29;;;-0.41;39.08
64139;BME280;50435;43.700;-79.318;2023-03-14T08:40:39;99875.87;;;-0.67;39.17
64139;BME280;50435;43.700;-79.318;2023-03-14T08:43:06;99872.53;;;-0.71;38.86
64139;BME280;50435;43.700;-79.318;2023-03-14T08:45:33;99869.99;;;-0.63;39.24
64139;BME280;50435;43.700;-79.318;2023-03-14T08:48:01;99867.99;;;-0.67;39.33
64139;BME280;50435;43.700;-79.318;2023-03-14T08:50:28;99874.44;;;-0.28;38.98
64139;BME280;50435;43.700;-79.318;2023-03-14T08:52:56;99877.80;;;-0.48;39.36
64139;BME280;50435;43.700;-79.318;2023-03-14T08:55:23;99874.58;;;-0.67;39.39
64139;BME280;50435;43.700;-79.318;2023-03-14T08:57:51;99873.49;;;-0.91;39.42
64139;BME280;50435;43.700;-79.318;2023-03-14T09:00:19;99879.07;;;-0.80;39.23
64139;BME280;50435;43.700;-79.318;2023-03-14T09:02:46;99876.77;;;-1.28;38.97
64139;BME280;50435;43.700;-79.318;2023-03-14T09:05:14;99876.61;;;-0.88;39.17
64139;BME280;50435;43.700;-79.318;2023-03-14T09:07:41;99873.60;;;-1.00;39.21
64139;BME280;50435;43.700;-79.318;2023-03-14T09:10:10;99877.26;;;-1.00;39.03
64139;BME280;50435;43.700;-79.318;2023-03-14T09:12:38;99880.56;;;-1.18;39.66
64139;BME280;50435;43.700;-79.318;2023-03-14T09:15:06;99883.95;;;-1.41;39.34
64139;BME280;50435;43.700;-79.318;2023-03-14T09:17:33;99884.70;;;-1.01;39.31
64139;BME280;50435;43.700;-79.318;2023-03-14T09:20:02;99888.91;;;-1.32;39.35
64139;BME280;50435;43.700;-79.318;2023-03-14T09:22:29;99887.23;;;-1.14;38.65
64139;BME280;50435;43.700;-79.318;2023-03-14T09:24:57;99891.73;;;-0.88;38.90
64139;BME280;50435;43.700;-79.318;2023-03-14T09:27:24;99892.29;;;-1.37;38.87
64139;BME280;50435;43.700;-79.318;2023-03-14T09:29:52;99892.56;;;-0.90;38.16
64139;BME280;50435;43.700;-79.318;2023-03-14T09:32:20;99899.66;;;-1.19;39.21
64139;BME280;50435;43.700;-79.318;2023-03-14T09:34:47;99900.62;;;-1.37;39.46
64139;BME280;50435;43.700;-79.318;2023-03-14T09:37:15;99899.61;;;-1.17;39.24
64139;BME280;50435;43.700;-79.318;2023-03-14T09:39:42;99905.30;;;-1.18;38.75
64139;BME280;50435;43.700;-79.318;2023-03-14T09:42:14;99906.46;;;-1.38;39.45
64139;BME280;50435;43.700;-79.318;2023-03-14T09:44:51;99909.31;;;-1.20;39.53
64139;BME280;50435;43.700;-79.318;2023-03-14T09:47:20;99918.47;;;-1.05;39.28
64139;BME280;50435;43.700;-79.318;2023-03-14T09:49:50;99907.06;;;-0.96;39.59
64139;BME280;50435;43.700;-79.318;2023-03-14T09:52:20;99923.66;;;-0.67;39.20
64139;BME280;50435;43.700;-79.318;2023-03-14T09:54:51;99917.76;;;-1.06;39.07
64139;BME280;50435;43.700;-79.318;2023-03-14T09:57:20;99919.03;;;-1.04;39.00
64139;BME280;50435;43.700;-79.318;2023-03-14T09:59:49;99925.06;;;-1.27;39.26
64139;BME280;50435;43.700;-79.318;2023-03-14T10:02:19;99929.66;;;-1.07;39.47
64139;BME280;50435;43.700;-79.318;2023-03-14T10:04:49;99926.49;;;-1.20;39.71
64139;BME280;50435;43.700;-79.318;2023-03-14T10:07:19;99930.46;;;-1.24;38.83
64139;BME280;50435;43.700;-79.318;2023-03-14T10:09:49;99931.99;;;-1.29;39.73
64139;BME280;50435;43.700;-79.318;2023-03-14T10:12:18;99937.70;;;-1.19;39.56
64139;BME280;50435;43.700;-79.318;2023-03-14T10:14:48;99938.67;;;-1.12;39.60
64139;BME280;50435;43.700;-79.318;2023-03-14T10:17:18;99939.39;;;-1.32;39.72
64139;BME280;50435;43.700;-79.318;2023-03-14T10:19:55;99945.79;;;-1.17;39.63
64139;BME280;50435;43.700;-79.318;2023-03-14T10:22:26;99932.50;;;-1.75;39.27
64139;BME280;50435;43.700;-79.318;2023-03-14T10:24:58;99937.22;;;-1.54;39.90
64139;BME280;50435;43.700;-79.318;2023-03-14T10:27:30;99933.30;;;-1.69;39.83
64139;BME280;50435;43.700;-79.318;2023-03-14T10:30:00;99942.40;;;-1.56;39.57
64139;BME280;50435;43.700;-79.318;2023-03-14T10:32:33;99943.47;;;-1.39;39.69
64139;BME280;50435;43.700;-79.318;2023-03-14T10:35:07;99951.17;;;-1.82;39.29
64139;BME280;50435;43.700;-79.318;2023-03-14T10:37:35;99951.36;;;-1.69;39.57
64139;BME280;50435;43.700;-79.318;2023-03-14T10:40:04;99952.08;;;-1.43;39.73
64139;BME280;50435;43.700;-79.318;2023-03-14T10:42:32;99954.49;;;-1.27;39.69
64139;BME280;50435;43.700;-79.318;2023-03-14T10:45:03;99956.45;;;-1.35;39.63
64139;BME280;50435;43.700;-79.318;2023-03-14T10:47:32;99957.07;;;-1.29;39.67
64139;BME280;50435;43.700;-79.318;2023-03-14T10:50:23;99958.11;;;-1.47;39.70
64139;BME280;50435;43.700;-79.318;2023-03-14T10:52:52;99967.01;;;-1.49;39.34
64139;BME280;50435;43.700;-79.318;2023-03-14T10:55:20;99959.21;;;-1.53;39.21
64139;BME280;50435;43.700;-79.318;2023-03-14T10:57:47;99967.80;;;-1.24;39.24
64139;BME280;50435;43.700;-79.318;2023-03-14T11:00:16;99971.75;;;-1.32;39.34
64139;BME280;50435;43.700;-79.318;2023-03-14T11:02:54;99975.06;;;-1.37;39.04
64139;BME280;50435;43.700;-79.318;2023-03-14T11:05:29;99976.15;;;-1.41;39.40
64139;BME280;50435;43.700;-79.318;2023-03-14T11:08:01;99973.47;;;-1.34;39.42
64139;BME280;50435;43.700;-79.318;2023-03-14T11:10:32;99976.91;;;-1.36;39.20
64139;BME280;50435;43.700;-79.318;2023-03-14T11:13:07;99983.08;;;-1.47;39.73
64139;BME280;50435;43.700;-79.318;2023-03-14T11:15:41;99978.81;;;-1.46;39.25
64139;BME280;50435;43.700;-79.318;2023-03-14T11:18:34;99987.08;;;-1.57;39.31
64139;BME280;50435;43.700;-79.318;2023-03-14T11:21:08;99991.23;;;-1.59;39.12
64139;BME280;50435;43.700;-79.318;2023-03-14T11:23:42;99999.04;;;-1.49;38.99
64139;BME280;50435;43.700;-79.318;2023-03-14T11:26:24;99996.85;;;-2.18;39.63
64139;BME280;50435;43.700;-79.318;2023-03-14T11:28:57;100004.31;;;-1.85;39.71
64139;BME280;50435;43.700;-79.318;2023-03-14T11:31:27;99992.55;;;-1.61;39.29
64139;BME280;50435;43.700;-79.318;2023-03-14T11:34:01;99997.23;;;-1.37;38.96
64139;BME280;50435;43.700;-79.318;2023-03-14T11:36:38;99998.00;;;-1.69;39.37
64139;BME280;50435;43.700;-79.318;2023-03-14T11:39:12;99983.57;;;-2.40;38.61
64139;BME280;50435;43.700;-79.318;2023-03-14T11:41:44;100003.00;;;-1.57;39.46
64139;BME280;50435;43.700;-79.318;2023-03-14T11:44:17;100003.84;;;-1.96;39.93
64139;BME280;50435;43.700;-79.318;2023-03-14T11:46:48;100003.56;;;-1.90;39.72
64139;BME280;50435;43.700;-79.318;2023-03-14T11:49:27;100008.82;;;-1.92;37.90
64139;BME280;50435;43.700;-79.318;2023-03-14T11:52:00;100009.78;;;-1.70;39.30
64139;BME280;50435;43.700;-79.318;2023-03-14T11:54:35;100004.60;;;-1.75;39.08
64139;BME280;50435;43.700;-79.318;2023-03-14T11:57:12;100006.97;;;-1.88;39.67
64139;BME280;50435;43.700;-79.318;2023-03-14T11:59:47;100012.88;;;-1.71;38.99
64139;BME280;50435;43.700;-79.318;2023-03-14T12:02:22;100004.61;;;-1.76;39.17
64139;BME280;50435;43.700;-79.318;2023-03-14T12:05:20;100012.23;;;-2.35;39.42
64139;BME280;50435;43.700;-79.318;2023-03-14T12:08:14;100020.81;;;-1.88;39.38
64139;BME280;50435;43.700;-79.318;2023-03-14T12:10:49;100021.91;;;-1.84;39.67
64139;BME280;50435;43.700;-79.318;2023-03-14T12:13:19;100017.69;;;-1.81;39.37
64139;BME280;50435;43.700;-79.318;2023-03-14T12:15:49;100012.24;;;-2.15;39.90
64139;BME280;50435;43.700;-79.318;2023-03-14T12:18:26;100019.47;;;-1.91;39.64
64139;BME280;50435;43.700;-79.318;2023-03-14T12:20:56;100017.46;;;-1.95;39.52
64139;BME280;50435;43.700;-79.318;2023-03-14T12:23:27;100010.98;;;-1.84;39.22
64139;BME280;50435;43.700;-79.318;2023-03-14T12:26:14;100018.79;;;-1.78;39.21
64139;BME280;50435;43.700;-79.318;2023-03-14T12:28:43;100012.26;;;-2.08;38.89
64139;BME280;50435;43.700;-79.318;2023-03-14T12:31:41;100018.86;;;-1.87;38.97
64139;BME280;50435;43.700;-79.318;2023-03-14T12:34:42;100013.53;;;-1.45;38.90
64139;BME280;50435;43.700;-79.318;2023-03-14T12:37:16;100005.34;;;-2.05;38.65
64139;BME280;50435;43.700;-79.318;2023-03-14T12:39:55;100010.55;;;-1.82;38.68
64139;BME280;50435;43.700;-79.318;2023-03-14T12:42:40;100019.59;;;-1.83;38.96
64139;BME280;50435;43.700;-79.318;2023-03-14T12:45:28;100006.93;;;-1.98;38.86
64139;BME280;50435;43.700;-79.318;2023-03-14T12:48:06;100017.12;;;-1.76;38.07
64139;BME280;50435;43.700;-79.318;2023-03-14T12:50:40;100006.69;;;-2.69;37.79
64139;BME280;50435;43.700;-79.318;2023-03-14T12:55:21;100006.69;;;-1.83;38.88
64139;BME280;50435;43.700;-79.318;2023-03-14T12:57:56;100015.97;;;-2.19;38.76
64139;BME280;50435;43.700;-79.318;2023-03-14T13:00:31;100018.23;;;-1.94;38.83